Time;durP1;ratioP1;P1;durP2;ratioP2;P2;SDS_P1;SDS_P2;PMS_P1;PMS_P2;Temp;Humidity;BMP_temperature;BMP_pressure;BME280_temperature;BME280_humidity;BME280_pressure;Samples;Min_cycle;Max_cycle;Signal;HPM_P1;HPM_P2
2021/12/24 00:03:21;;;;;;;44.72;26.50;;;;;;;-0.73;58.63;97870.84;10408397;28;20115;-58
2021/12/24 00:08:20;;;;;;;44.83;25.58;;;;;;;-0.68;59.00;97866.84;10408178;28;20107;-58
2021/12/24 00:13:19;;;;;;;49.63;26.85;;;;;;;-0.61;58.11;97856.97;10408145;28;20102;-58
2021/12/24 00:39:04;;;;;;;61.78;34.05;;;;;;;-0.77;58.79;97843.50;10406506;28;20107;-58
2021/12/24 00:44:04;;;;;;;54.40;32.17;;;;;;;-0.73;58.52;97825.00;10404939;28;20148;-58
2021/12/24 00:49:02;;;;;;;60.95;35.22;;;;;;;-0.77;58.53;97802.72;10401029;28;20116;-58
2021/12/24 00:59:19;;;;;;;60.20;36.08;;;;;;;-0.97;59.42;97830.75;10406005;28;20124;-58
2021/12/24 01:04:18;;;;;;;57.40;31.85;;;;;;;-0.99;58.58;97819.59;10414188;28;20040;-58
2021/12/24 01:09:17;;;;;;;61.90;34.40;;;;;;;-1.06;58.86;97822.69;10414211;28;20124;-58
2021/12/24 01:14:16;;;;;;;58.38;29.02;;;;;;;-1.11;59.04;97826.69;10414990;28;20119;-58
2021/12/24 01:19:20;;;;;;;53.63;33.92;;;;;;;-1.09;58.68;97827.66;10410717;28;20128;-58
2021/12/24 01:24:27;;;;;;;66.60;39.92;;;;;;;-1.03;59.26;97812.63;10414361;28;20143;-58
2021/12/24 01:44:50;;;;;;;70.20;37.00;;;;;;;-0.99;59.44;97766.13;10419985;28;20075;-58
2021/12/24 01:49:50;;;;;;;67.25;37.70;;;;;;;-1.08;59.12;97765.72;10416179;28;20056;-58
2021/12/24 01:54:49;;;;;;;60.65;33.78;;;;;;;-1.26;59.42;97743.72;10420897;28;20498;-58
2021/12/24 01:59:48;;;;;;;44.92;23.45;;;;;;;-1.28;59.47;97755.50;10421454;28;20481;-58
2021/12/24 02:04:47;;;;;;;45.60;25.15;;;;;;;-1.42;60.00;97743.84;10420667;28;20068;-58
2021/12/24 02:09:46;;;;;;;45.08;24.17;;;;;;;-1.34;59.15;97754.34;10420409;28;20063;-58
2021/12/24 02:14:50;;;;;;;42.85;22.42;;;;;;;-1.46;59.87;97739.41;10434950;28;20068;-58
2021/12/24 02:30:30;;;;;;;29.42;17.77;;;;;;;-1.64;61.20;97737.75;10419544;28;20081;-58
2021/12/24 02:35:29;;;;;;;44.80;23.08;;;;;;;-1.65;61.11;97712.25;10419331;28;20068;-58
2021/12/24 02:40:29;;;;;;;;;;;;;;;-1.64;61.37;97709.75;10420082;28;20535;-58
2021/12/24 02:45:31;;;;;;;41.53;23.08;;;;;;;-1.64;60.77;97699.56;10419701;28;20687;-59
2021/12/24 02:55:54;;;;;;;48.53;24.13;;;;;;;-1.61;60.87;97681.03;10419044;28;20063;-58
2021/12/24 03:00:53;;;;;;;47.08;23.98;;;;;;;-1.54;60.65;97650.00;10418834;28;20036;-58
2021/12/24 03:05:52;;;;;;;35.00;21.27;;;;;;;-1.54;60.43;97659.28;10417821;28;20072;-58
2021/12/24 03:10:54;;;;;;;33.83;18.42;;;;;;;-1.46;60.89;97651.19;10417437;28;20028;-58
2021/12/24 03:15:56;;;;;;;30.25;16.48;;;;;;;-1.59;60.45;97650.56;10416628;28;20101;-58
2021/12/24 03:26:06;;;;;;;32.57;17.47;;;;;;;-1.47;59.82;97657.09;10416493;28;20090;-59
2021/12/24 03:31:06;;;;;;;35.22;19.45;;;;;;;-1.42;60.18;97629.31;10414562;28;20079;-59
2021/12/24 03:36:07;;;;;;;40.38;21.35;;;;;;;-1.42;60.13;97616.59;10415722;28;20071;-59
2021/12/24 03:41:06;;;;;;;41.33;21.35;;;;;;;-1.34;60.16;97607.59;10416589;28;20067;-58
2021/12/24 03:46:13;;;;;;;38.67;19.63;;;;;;;-1.37;59.40;97617.66;10417311;28;20074;-58
2021/12/24 03:56:21;;;;;;;34.33;20.83;;;;;;;-1.37;59.70;97625.28;10417296;28;20075;-58
2021/12/24 04:01:20;;;;;;;35.42;21.02;;;;;;;-1.44;60.74;97630.91;10416236;28;20024;-58
2021/12/24 04:06:19;;;;;;;35.95;21.77;;;;;;;-1.48;60.95;97621.41;10414518;28;20060;-58
2021/12/24 04:11:18;;;;;;;65.20;38.38;;;;;;;-1.48;60.42;97636.66;10416207;28;20084;-58
2021/12/24 04:16:17;;;;;;;37.13;19.98;;;;;;;-1.66;61.12;97622.34;10415929;28;20064;-58
2021/12/24 04:26:34;;;;;;;37.88;22.13;;;;;;;-1.45;61.13;97624.06;10416202;28;20076;-58
2021/12/24 04:31:42;;;;;;;;;;;;;;;-1.12;60.99;97644.16;10416029;28;20072;-58
2021/12/24 04:37:14;;;;;;;40.55;22.65;;;;;;;-1.02;60.77;97636.97;10420819;28;20391;-58
2021/12/24 05:03:12;;;;;;;32.97;19.40;;;;;;;-0.96;61.73;97626.16;10414779;28;20072;-58
2021/12/24 05:13:16;;;;;;;54.83;30.73;;;;;;;-0.95;61.80;97633.00;10381546;28;20573;-58
2021/12/24 05:23:32;;;;;;;41.85;23.10;;;;;;;-0.94;62.29;97603.31;10381799;28;20120;-58
2021/12/24 05:28:32;;;;;;;37.15;23.02;;;;;;;-0.70;62.36;97634.00;10396538;28;20052;-58
2021/12/24 05:33:31;;;;;;;43.60;24.55;;;;;;;-0.67;62.59;97616.31;10419540;28;20060;-58
2021/12/24 05:38:30;;;;;;;36.55;22.10;;;;;;;-0.47;61.99;97623.06;10420454;28;20079;-58
2021/12/24 05:43:29;;;;;;;39.78;24.27;;;;;;;-0.42;62.08;97607.97;10412943;28;20072;-58
2021/12/24 05:48:28;;;;;;;41.83;24.80;;;;;;;-0.27;62.08;97610.25;10379722;28;20043;-58
2021/12/24 05:53:27;;;;;;;37.42;24.52;;;;;;;-0.17;62.13;97617.44;10377455;28;20048;-58
2021/12/24 05:58:26;;;;;;;34.22;20.05;;;;;;;-0.04;62.09;97618.78;10379842;28;20072;-58
2021/12/24 06:03:25;;;;;;;;;;;;;;;0.07;61.80;97624.28;10390672;28;20475;-58
2021/12/24 06:08:24;;;;;;;54.50;33.63;;;;;;;0.09;62.28;97609.91;10420661;28;20423;-58
2021/12/24 06:13:24;;;;;;;32.92;18.15;;;;;;;0.63;60.87;97616.16;10399442;28;20501;-58
2021/12/24 06:18:27;;;;;;;23.02;16.73;;;;;;;1.35;59.06;97622.88;10394558;28;20071;-58
2021/12/24 06:23:27;;;;;;;16.77;9.45;;;;;;;1.73;58.43;97633.47;10379115;28;20095;-58
2021/12/24 06:28:27;;;;;;;12.63;8.05;;;;;;;1.98;57.75;97627.44;10379145;28;20084;-58
2021/12/24 06:33:27;;;;;;;9.90;6.13;;;;;;;2.18;57.17;97628.00;10378588;28;20130;-58
2021/12/24 06:38:26;;;;;;;16.02;8.15;;;;;;;2.47;55.89;97648.50;10378565;28;20464;-58
2021/12/24 06:43:25;;;;;;;11.63;5.70;;;;;;;2.73;55.36;97629.59;10392353;28;20498;-58
2021/12/24 06:48:24;;;;;;;11.82;6.47;;;;;;;2.99;54.13;97627.75;10418626;28;20466;-58
2021/12/24 06:53:23;;;;;;;11.02;6.47;;;;;;;3.25;53.61;97614.75;10415058;28;20467;-58
2021/12/24 06:58:22;;;;;;;8.73;4.18;;;;;;;3.46;53.02;97608.41;10415955;28;20463;-58
2021/12/24 07:03:21;;;;;;;9.48;5.70;;;;;;;3.70;52.39;97606.44;10416412;28;20028;-59
2021/12/24 07:08:20;;;;;;;11.45;5.47;;;;;;;4.03;51.91;97614.06;10418091;28;20042;-58
2021/12/24 07:13:19;;;;;;;14.98;7.22;;;;;;;4.07;51.02;97599.56;10412702;28;20091;-58
2021/12/24 07:18:19;;;;;;;7.75;4.68;;;;;;;4.29;50.56;97621.44;10376142;28;20029;-58
2021/12/24 07:23:18;;;;;;;9.85;4.40;;;;;;;4.44;50.36;97605.50;10376119;28;20103;-58
2021/12/24 07:28:17;;;;;;;8.13;4.55;;;;;;;4.61;50.15;97603.28;10411855;28;20052;-58
2021/12/24 07:33:16;;;;;;;8.90;5.18;;;;;;;4.71;49.65;97590.66;10409937;28;20116;-59
2021/12/24 07:38:15;;;;;;;7.00;5.05;;;;;;;4.79;49.44;97598.50;10413018;28;20479;-56
2021/12/24 07:43:14;;;;;;;8.82;5.47;;;;;;;5.00;49.60;97598.06;10411687;28;20068;-57
2021/12/24 07:48:15;;;;;;;8.05;4.30;;;;;;;5.06;49.45;97587.91;10414070;28;20060;-57
2021/12/24 07:53:16;;;;;;;10.98;5.90;;;;;;;5.08;48.78;97578.47;10411420;28;21273;-58
2021/12/24 07:58:17;;;;;;;7.97;5.43;;;;;;;5.32;48.95;97587.47;10413784;28;20070;-57
2021/12/24 08:03:16;;;;;;;9.73;4.80;;;;;;;5.39;49.08;97581.59;10404150;28;20072;-57
2021/12/24 08:08:16;;;;;;;17.88;5.10;;;;;;;5.49;48.32;97575.75;10407471;28;20062;-57
2021/12/24 08:13:15;;;;;;;14.88;5.07;;;;;;;5.70;48.20;97587.25;10410157;28;20067;-56
2021/12/24 08:18:14;;;;;;;11.18;5.15;;;;;;;5.87;48.09;97585.78;10411226;28;20067;-57
2021/12/24 08:23:13;;;;;;;7.10;4.90;;;;;;;5.99;47.89;97574.78;10407291;28;20036;-57
2021/12/24 08:28:12;;;;;;;9.52;5.38;;;;;;;6.37;48.08;97571.84;10407406;28;20052;-57
2021/12/24 08:33:15;;;;;;;7.40;4.45;;;;;;;6.70;47.55;97561.09;10408982;28;20044;-57
2021/12/24 08:38:15;;;;;;;10.25;5.70;;;;;;;6.84;46.54;97543.16;10406021;28;20521;-57
2021/12/24 08:43:14;;;;;;;10.10;5.68;;;;;;;6.81;46.52;97502.72;10410769;28;20071;-57
2021/12/24 08:48:13;;;;;;;8.20;5.30;;;;;;;6.98;46.53;97515.81;10406053;28;20059;-56
2021/12/24 08:53:12;;;;;;;11.82;5.35;;;;;;;6.93;47.32;97529.50;10406621;28;20036;-56
2021/12/24 08:58:11;;;;;;;9.20;5.50;;;;;;;6.99;46.92;97547.63;10409030;28;20523;-56
2021/12/24 09:03:10;;;;;;;7.95;5.35;;;;;;;6.71;46.59;97511.25;10410567;28;20430;-56
2021/12/24 09:08:09;;;;;;;7.15;4.40;;;;;;;6.85;46.41;97515.69;10403684;28;20563;-56
2021/12/24 09:13:09;;;;;;;9.98;4.93;;;;;;;6.88;46.79;97510.53;10410401;28;20463;-57
2021/12/24 09:18:08;;;;;;;11.38;5.03;;;;;;;6.88;46.91;97500.22;10409519;28;20068;-58
2021/12/24 09:23:09;;;;;;;11.32;6.93;;;;;;;6.83;46.85;97476.97;10409181;28;20140;-56
2021/12/24 09:28:08;;;;;;;14.20;6.00;;;;;;;6.98;46.79;97489.13;10414409;28;20084;-56
2021/12/24 09:33:08;;;;;;;11.30;5.18;;;;;;;6.98;46.80;97465.91;10408304;28;20056;-56
2021/12/24 09:38:07;;;;;;;6.88;4.50;;;;;;;7.05;46.34;97480.59;10377909;28;20076;-56
2021/12/24 09:43:06;;;;;;;8.95;4.72;;;;;;;7.22;46.27;97473.88;10390616;28;20056;-56
2021/12/24 09:48:05;;;;;;;13.35;5.13;;;;;;;7.34;45.96;97475.66;10412774;28;20449;-56
2021/12/24 09:53:04;;;;;;;11.77;5.38;;;;;;;7.22;46.61;97447.19;10404668;28;20029;-56
2021/12/24 09:58:03;;;;;;;7.75;4.32;;;;;;;7.23;45.89;97449.78;10409335;28;20494;-56
2021/12/24 10:03:02;;;;;;;13.52;7.05;;;;;;;7.43;45.86;97452.53;10402649;28;20101;-56
2021/12/24 10:08:16;;;;;;;9.98;4.45;;;;;;;7.53;45.80;97432.81;10410319;28;20067;-56
2021/12/24 10:13:37;;;;;;;8.30;4.15;;;;;;;7.62;45.71;97434.56;10404457;28;20107;-57
2021/12/24 10:18:40;;;;;;;12.48;4.32;;;;;;;7.73;45.14;97430.31;10411555;28;20084;-57
2021/12/24 10:24:09;;;;;;;9.82;4.85;;;;;;;7.92;45.34;97430.41;10376069;28;20079;-57
2021/12/24 10:29:26;;;;;;;6.75;3.95;;;;;;;7.98;44.77;97433.88;10386489;28;20088;-57
2021/12/24 10:34:29;;;;;;;10.52;4.13;;;;;;;8.13;45.01;97445.13;10385056;28;20066;-57
2021/12/24 10:39:29;;;;;;;11.02;4.43;;;;;;;8.10;45.25;97427.88;10376084;28;20053;-57
2021/12/24 10:44:32;;;;;;;13.55;5.15;;;;;;;8.10;44.48;97435.63;10371202;28;20072;-57
2021/12/24 10:54:48;;;;;;;15.55;8.95;;;;;;;8.29;44.77;97416.78;10412926;28;20071;-57
2021/12/24 10:59:49;;;;;;;17.15;7.63;;;;;;;8.28;44.33;97420.19;10406409;28;20120;-57
2021/12/24 11:04:48;;;;;;;9.15;6.00;;;;;;;8.17;43.81;97395.19;10410074;28;20060;-57
2021/12/24 11:10:12;;;;;;;9.20;5.15;;;;;;;8.46;44.21;97413.34;10410522;28;20063;-56
2021/12/24 11:15:22;;;;;;;10.20;4.70;;;;;;;8.32;44.30;97405.56;10416399;28;20063;-57
2021/12/24 11:20:22;;;;;;;11.25;5.20;;;;;;;8.34;44.38;97393.50;10413292;28;20186;-57
2021/12/24 11:25:22;;;;;;;7.20;4.90;;;;;;;8.43;44.13;97387.47;10408862;28;20059;-57
2021/12/24 11:30:23;;;;;;;8.48;4.40;;;;;;;8.37;44.28;97382.31;10411091;28;20091;-57
2021/12/24 11:35:24;;;;;;;11.68;4.22;;;;;;;8.36;44.67;97375.41;10410061;28;20067;-58
2021/12/24 11:40:24;;;;;;;7.70;4.72;;;;;;;8.42;43.97;97375.41;10414767;28;20086;-58
2021/12/24 11:45:27;;;;;;;7.35;4.85;;;;;;;8.50;44.41;97363.34;10411268;28;20080;-58
2021/12/24 11:50:27;;;;;;;8.32;5.25;;;;;;;8.49;43.89;97383.19;10414417;28;20523;-58
2021/12/24 11:55:33;;;;;;;9.85;5.25;;;;;;;8.56;43.84;97357.34;10411748;28;20467;-58
2021/12/24 12:00:39;;;;;;;7.57;4.93;;;;;;;8.64;43.48;97381.47;10410656;28;20063;-58
2021/12/24 12:05:41;;;;;;;9.95;4.90;;;;;;;8.84;43.98;97384.94;10399305;28;20059;-58
2021/12/24 12:10:55;;;;;;;9.63;5.70;;;;;;;8.83;43.29;97364.22;10391669;28;20141;-58
2021/12/24 12:15:58;;;;;;;6.88;4.30;;;;;;;8.85;42.95;97353.00;10395870;28;20123;-58
2021/12/24 12:21:12;;;;;;;9.73;5.70;;;;;;;8.91;43.32;97371.13;10399073;28;20136;-57
2021/12/24 12:26:34;;;;;;;12.77;6.75;;;;;;;8.96;42.69;97368.53;10402910;28;20934;-58
2021/12/24 12:31:33;;;;;;;8.73;6.00;;;;;;;9.08;43.05;97357.31;10401314;28;20178;-58
2021/12/24 12:36:39;;;;;;;11.52;6.25;;;;;;;9.11;42.82;97347.81;10399104;28;20043;-58
2021/12/24 12:41:48;;;;;;;7.22;4.95;;;;;;;9.07;43.14;97340.06;10400013;28;20131;-58
2021/12/24 12:46:50;;;;;;;20.33;14.57;;;;;;;9.05;42.85;97353.00;10401117;28;20142;-58
2021/12/24 12:51:51;;;;;;;34.40;26.58;;;;;;;9.19;42.57;97350.38;10401309;28;20202;-58
2021/12/24 12:57:09;;;;;;;6.70;4.95;;;;;;;9.29;42.51;97352.09;10401104;28;20147;-58
2021/12/24 13:02:09;;;;;;;8.57;4.90;;;;;;;9.31;42.75;97354.69;10407678;28;20115;-58
2021/12/24 13:07:09;;;;;;;11.18;7.93;;;;;;;9.34;41.92;97342.59;10406563;28;20151;-57
2021/12/24 13:12:08;;;;;;;9.70;6.68;;;;;;;9.53;41.93;97345.13;10404897;28;20115;-58
2021/12/24 13:27:29;;;;;;;17.83;12.85;;;;;;;9.41;41.96;97314.09;10407397;28;20176;-58
2021/12/24 13:32:28;;;;;;;10.20;6.57;;;;;;;9.41;42.00;97304.59;10401507;28;20119;-57
2021/12/24 13:37:31;;;;;;;8.55;5.80;;;;;;;9.45;42.42;97327.03;10405258;28;20128;-58
2021/12/24 13:42:50;;;;;;;10.43;5.95;;;;;;;9.37;42.68;97322.75;10404300;28;20487;-58
2021/12/24 13:48:05;;;;;;;11.07;6.30;;;;;;;9.28;42.56;97329.69;10403502;28;20115;-58
2021/12/24 13:58:26;;;;;;;9.27;5.82;;;;;;;9.01;43.02;97325.38;10406844;28;20139;-57
2021/12/24 14:03:34;;;;;;;8.77;5.07;;;;;;;8.81;43.23;97333.19;10407859;28;20128;-58
2021/12/24 14:08:36;;;;;;;11.32;5.32;;;;;;;8.70;43.53;97342.69;10402528;28;20155;-58
2021/12/24 14:13:41;;;;;;;13.02;5.20;;;;;;;8.63;43.50;97354.75;10379479;28;20497;-57
2021/12/24 14:18:45;;;;;;;11.98;6.50;;;;;;;8.55;44.10;97350.41;10401863;28;20119;-57
2021/12/24 14:23:46;;;;;;;13.40;6.68;;;;;;;8.34;44.31;97328.88;10418306;28;20183;-58
2021/12/24 14:28:52;;;;;;;21.33;11.15;;;;;;;8.25;44.44;97341.78;10403863;28;20139;-58
2021/12/24 14:33:51;;;;;;;10.40;6.10;;;;;;;8.04;45.06;97343.47;10402981;28;20119;-58
2021/12/24 14:38:50;;;;;;;14.20;7.57;;;;;;;7.95;44.95;97342.59;10403749;28;20028;-58
2021/12/24 14:43:50;;;;;;;11.25;7.32;;;;;;;7.79;44.97;97347.69;10402873;28;20129;-58
2021/12/24 14:48:49;;;;;;;12.77;7.88;;;;;;;7.69;45.57;97332.19;10402711;28;20155;-58
2021/12/24 14:53:51;;;;;;;14.38;8.23;;;;;;;7.64;45.59;97345.06;10402405;28;20067;-58
2021/12/24 14:58:58;;;;;;;10.73;6.35;;;;;;;7.45;46.87;97346.69;10405611;28;20123;-58
2021/12/24 15:04:02;;;;;;;17.75;9.38;;;;;;;7.32;47.32;97335.41;10404094;28;20351;-57
2021/12/24 15:09:21;;;;;;;12.43;7.25;;;;;;;7.23;47.67;97340.53;10401193;28;20116;-58
2021/12/24 15:14:26;;;;;;;13.80;7.40;;;;;;;7.16;47.08;97328.44;10420148;28;20154;-57
2021/12/24 15:19:25;;;;;;;13.65;7.78;;;;;;;7.09;48.03;97337.88;10400169;28;20034;-57
2021/12/24 15:24:24;;;;;;;16.45;8.50;;;;;;;7.24;47.70;97356.03;10402756;28;20041;-58
2021/12/24 15:29:23;;;;;;;13.98;7.85;;;;;;;7.34;47.34;97353.50;10403551;28;20052;-58
2021/12/24 15:34:22;;;;;;;14.95;8.75;;;;;;;7.39;47.35;97359.53;10402403;28;20058;-58
2021/12/24 15:39:21;;;;;;;16.45;9.80;;;;;;;7.33;46.91;97357.78;10398164;28;20040;-58
2021/12/24 15:44:19;;;;;;;24.20;14.63;;;;;;;7.27;47.65;97355.19;10401643;28;20892;-58
2021/12/24 15:49:19;;;;;;;19.55;11.80;;;;;;;7.22;48.01;97362.91;10401403;28;20047;-58
2021/12/24 15:54:18;;;;;;;19.85;11.48;;;;;;;6.99;48.12;97343.84;10399364;28;20108;-58
2021/12/24 15:59:17;;;;;;;17.17;11.30;;;;;;;6.83;48.81;97358.34;10394546;28;20135;-58
2021/12/24 16:04:16;;;;;;;21.25;12.65;;;;;;;6.68;48.26;97356.50;10400697;28;20127;-58
2021/12/24 16:09:18;;;;;;;38.05;22.33;;;;;;;6.53;49.34;97357.22;10401582;28;20493;-57
2021/12/24 16:14:18;;;;;;;21.55;14.10;;;;;;;6.40;49.75;97345.97;10402030;28;20123;-58
2021/12/24 16:19:18;;;;;;;28.35;18.42;;;;;;;6.24;50.46;97367.28;10399452;28;20487;-58
2021/12/24 16:24:18;;;;;;;30.27;18.92;;;;;;;6.14;51.17;97376.63;10397925;28;20135;-57
2021/12/24 16:29:22;;;;;;;35.75;18.25;;;;;;;6.08;50.94;97378.28;10401019;28;20574;-57
2021/12/24 16:34:21;;;;;;;41.83;20.00;;;;;;;5.90;50.80;97364.34;10395663;28;20107;-57
2021/12/24 16:39:20;;;;;;;31.02;20.48;;;;;;;5.72;51.21;97339.25;10399084;28;20194;-57
2021/12/24 16:44:19;;;;;;;33.85;21.65;;;;;;;5.57;52.53;97359.66;10399175;28;20037;-57
2021/12/24 16:49:18;;;;;;;41.92;24.58;;;;;;;5.51;52.77;97375.91;10400886;28;20029;-57
2021/12/24 16:54:17;;;;;;;21.08;13.93;;;;;;;5.41;52.47;97361.19;10401095;28;20408;-57
2021/12/24 16:59:20;;;;;;;24.95;14.40;;;;;;;5.53;52.79;97370.75;10400801;28;20116;-57
2021/12/24 17:04:20;;;;;;;23.33;16.40;;;;;;;5.48;53.33;97365.56;10395144;28;20115;-57
2021/12/24 17:09:19;;;;;;;35.85;24.13;;;;;;;5.62;52.97;97382.88;10400444;28;20574;-57
2021/12/24 17:14:21;;;;;;;28.52;21.20;;;;;;;5.78;52.09;97386.53;10399259;28;20582;-57
2021/12/24 17:19:20;;;;;;;31.75;22.67;;;;;;;5.83;51.86;97390.88;10400401;28;20127;-57
2021/12/24 17:24:19;;;;;;;36.80;23.55;;;;;;;5.83;52.08;97398.59;10400441;28;20160;-57
2021/12/24 17:29:19;;;;;;;18.92;10.98;;;;;;;5.79;52.09;97383.09;10398833;28;20460;-57
2021/12/24 17:34:19;;;;;;;12.65;8.73;;;;;;;5.91;52.23;97391.84;10394321;28;20578;-57
2021/12/24 17:39:18;;;;;;;10.65;7.10;;;;;;;5.96;52.36;97384.16;10399822;28;20111;-57
2021/12/24 17:44:18;;;;;;;11.43;5.85;;;;;;;6.13;52.17;97382.63;10403875;28;20164;-57
2021/12/24 17:49:17;;;;;;;12.23;6.32;;;;;;;6.27;52.13;97375.03;10402661;28;20142;-57
2021/12/24 17:54:16;;;;;;;14.57;9.02;;;;;;;6.31;51.61;97376.78;10405999;28;20024;-57
2021/12/24 17:59:15;;;;;;;;;;;;;;;6.32;51.40;97393.97;10407481;28;20589;-57
2021/12/24 18:04:15;;;;;;;17.75;12.60;;;;;;;6.50;51.50;97400.16;10403641;28;20402;-57
2021/12/24 18:09:14;;;;;;;29.08;19.70;;;;;;;6.47;51.28;97413.91;10401260;28;20115;-57
2021/12/24 18:14:13;;;;;;;15.90;11.02;;;;;;;6.23;51.67;97393.88;10406465;28;20115;-57
2021/12/24 18:19:12;;;;;;;18.02;11.45;;;;;;;6.21;51.72;97399.88;10407198;28;20552;-57
2021/12/24 18:24:11;;;;;;;14.23;9.35;;;;;;;6.16;51.83;97402.41;10406304;28;20040;-57
2021/12/24 18:29:10;;;;;;;12.48;8.70;;;;;;;6.21;52.11;97393.03;10406102;28;20044;-57
2021/12/24 18:34:09;;;;;;;14.82;8.07;;;;;;;6.33;52.01;97394.88;10405675;28;20392;-57
2021/12/24 18:39:08;;;;;;;13.77;9.95;;;;;;;6.31;52.31;97376.78;10402209;28;20487;-57
2021/12/24 18:44:07;;;;;;;11.18;8.15;;;;;;;6.26;52.32;97378.47;10405982;28;20115;-57
2021/12/24 18:49:06;;;;;;;16.55;10.35;;;;;;;6.10;52.66;97376.59;10404402;28;20456;-57
2021/12/24 18:54:05;;;;;;;76.63;48.50;;;;;;;6.03;53.20;97395.41;10405295;28;20115;-58
2021/12/24 18:59:05;;;;;;;29.90;22.15;;;;;;;5.94;53.20;97394.44;10404176;28;20621;-58
2021/12/24 19:04:04;;;;;;;35.35;24.67;;;;;;;5.86;53.52;97403.81;10405050;28;20127;-57
2021/12/24 19:09:04;;;;;;;50.03;29.27;;;;;;;5.74;53.53;97406.19;10399461;28;20116;-57
2021/12/24 19:14:03;;;;;;;13.82;8.48;;;;;;;5.72;54.02;97413.06;10403968;28;20155;-57
2021/12/24 19:19:04;;;;;;;18.15;11.85;;;;;;;5.91;53.84;97415.00;10405317;28;20037;-57
2021/12/24 19:24:03;;;;;;;15.20;9.93;;;;;;;6.05;53.38;97398.88;10415200;28;20132;-58
2021/12/24 19:29:04;;;;;;;21.80;14.25;;;;;;;6.12;53.19;97410.97;10402745;28;20127;-59
2021/12/24 19:34:03;;;;;;;27.00;17.35;;;;;;;5.90;54.07;97402.97;10403375;28;20142;-57
2021/12/24 19:39:02;;;;;;;31.83;22.52;;;;;;;5.80;53.52;97413.16;10398816;28;20494;-57
2021/12/24 19:44:01;;;;;;;28.35;16.38;;;;;;;5.61;54.61;97394.03;10400199;28;20583;-57
2021/12/24 19:49:01;;;;;;;20.55;13.43;;;;;;;5.66;54.83;97400.09;10401290;28;20186;-57
2021/12/24 19:54:00;;;;;;;31.98;19.08;;;;;;;5.61;55.08;97389.75;10403239;28;20116;-58
2021/12/24 19:58:59;;;;;;;12.07;7.15;;;;;;;5.84;55.42;97409.78;10400263;28;20111;-60
2021/12/24 20:03:59;;;;;;;9.52;5.22;;;;;;;5.88;54.84;97389.22;10402394;28;20044;-58
2021/12/24 20:08:58;;;;;;;6.68;3.92;;;;;;;6.01;54.09;97403.09;10399397;28;20123;-58
2021/12/24 20:13:58;;;;;;;13.07;8.60;;;;;;;6.18;54.18;97390.41;10402433;28;20115;-58
2021/12/24 20:18:57;;;;;;;10.52;6.70;;;;;;;6.53;53.43;97384.72;10401655;28;20111;-59
2021/12/24 20:23:56;;;;;;;6.57;4.20;;;;;;;6.79;52.64;97375.47;10399990;28;20036;-59
2021/12/24 20:28:56;;;;;;;13.43;7.70;;;;;;;6.77;52.09;97387.53;10400906;28;20201;-59
2021/12/24 20:33:54;;;;;;;13.88;8.57;;;;;;;6.89;51.58;97386.75;10402781;28;20499;-58
2021/12/24 20:38:54;;;;;;;6.47;3.92;;;;;;;6.83;52.00;97374.66;10398840;28;20450;-59
2021/12/24 20:43:53;;;;;;;10.95;6.75;;;;;;;6.97;51.61;97358.44;10401855;28;20139;-59
2021/12/24 20:48:54;;;;;;;11.52;7.43;;;;;;;6.97;52.11;97354.13;10399570;28;20130;-59
2021/12/24 20:53:54;;;;;;;8.00;4.93;;;;;;;6.80;51.84;97345.41;10401188;28;20220;-59
2021/12/24 20:58:53;;;;;;;;;;;;;;;6.74;52.51;97341.06;10400852;28;20115;-59
2021/12/24 21:03:51;;;;;;;5.35;3.45;;;;;;;6.78;52.41;97353.13;10399600;28;19974;-58
2021/12/24 21:08:50;;;;;;;5.38;3.33;;;;;;;6.86;51.87;97336.84;10395240;28;20040;-59
2021/12/24 21:13:50;;;;;;;5.65;3.15;;;;;;;6.87;52.04;97321.41;10399633;28;20202;-59
2021/12/24 21:18:50;;;;;;;5.95;3.55;;;;;;;7.16;51.80;97339.63;10405299;28;20535;-59
2021/12/24 21:23:57;;;;;;;6.55;3.63;;;;;;;7.23;51.43;97366.34;10407354;28;20132;-58
2021/12/24 21:28:59;;;;;;;7.05;4.32;;;;;;;7.30;51.66;97350.03;10408631;28;20171;-59
2021/12/24 21:33:58;;;;;;;5.80;3.75;;;;;;;7.18;51.44;97330.19;10407007;28;20150;-58
2021/12/24 21:38:57;;;;;;;4.72;2.95;;;;;;;7.03;50.91;97281.94;10407834;28;20464;-59
2021/12/24 21:43:57;;;;;;;6.50;3.90;;;;;;;7.41;51.28;97322.59;10403790;28;20127;-59
2021/12/24 21:48:56;;;;;;;5.55;3.25;;;;;;;7.46;51.04;97309.69;10408141;28;20120;-56
2021/12/24 21:53:55;;;;;;;7.32;3.60;;;;;;;7.48;50.91;97320.91;10405102;28;20135;-56
2021/12/24 21:58:54;;;;;;;5.72;3.50;;;;;;;7.45;51.14;97300.22;10405991;28;20119;-59
2021/12/24 22:04:26;;;;;;;4.93;3.17;;;;;;;7.55;51.28;97290.81;10407399;28;20040;-59
2021/12/24 22:09:12;;;;;;;5.93;2.88;;;;;;;7.83;50.65;97310.69;10405264;28;20625;-59
2021/12/24 22:14:11;;;;;;;4.32;2.75;;;;;;;8.00;49.47;97310.72;10405402;28;20874;-58
2021/12/24 22:19:10;;;;;;;5.45;3.20;;;;;;;8.14;48.76;97300.41;10406788;28;20127;-58
2021/12/24 22:24:11;;;;;;;6.13;3.40;;;;;;;8.35;48.41;97289.22;10406926;28;20131;-59
2021/12/24 22:29:17;;;;;;;6.00;4.20;;;;;;;8.39;48.91;97280.63;10405637;28;20163;-56
2021/12/24 22:34:17;;;;;;;5.32;3.00;;;;;;;8.28;48.84;97293.53;10406150;28;20112;-57
2021/12/24 22:39:17;;;;;;;8.00;3.63;;;;;;;8.33;48.77;97272.84;10407583;28;20048;-57
2021/12/24 22:44:16;;;;;;;6.10;3.10;;;;;;;8.29;48.84;97287.50;10400226;28;20127;-57
2021/12/24 22:49:15;;;;;;;2.78;2.13;;;;;;;8.20;49.02;97263.34;10407193;28;20107;-57
2021/12/24 22:54:14;;;;;;;4.32;2.65;;;;;;;8.38;48.43;97255.59;10406485;28;20036;-57
2021/12/24 22:59:13;;;;;;;6.32;3.30;;;;;;;8.46;48.19;97253.03;10406859;28;20487;-57
2021/12/24 23:04:12;;;;;;;7.50;4.38;;;;;;;8.36;48.45;97221.13;10406910;28;21164;-57
2021/12/24 23:09:11;;;;;;;10.15;5.97;;;;;;;8.51;47.86;97247.00;10407288;28;20117;-57
2021/12/24 23:14:10;;;;;;;3.72;2.40;;;;;;;8.57;47.92;97233.19;10401311;28;20032;-56
2021/12/24 23:19:15;;;;;;;9.80;5.90;;;;;;;8.45;48.03;97228.88;10405178;28;20040;-57
2021/12/24 23:24:16;;;;;;;26.27;16.33;;;;;;;8.47;47.93;97244.41;10406018;28;20116;-56
2021/12/24 23:29:16;;;;;;;6.90;4.05;;;;;;;8.33;47.82;97231.47;10403438;28;20127;-57
2021/12/24 23:34:16;;;;;;;7.57;4.82;;;;;;;8.30;47.99;97236.66;10406319;28;20063;-56
2021/12/24 23:39:15;;;;;;;6.65;3.97;;;;;;;8.38;48.14;97241.81;10404178;28;20131;-57
2021/12/24 23:44:15;;;;;;;7.93;4.70;;;;;;;8.45;47.80;97240.97;10403808;28;20039;-57
2021/12/24 23:49:15;;;;;;;7.90;4.90;;;;;;;8.52;48.11;97238.34;10410175;28;20453;-57
2021/12/24 23:54:14;;;;;;;;;;;;;;;8.51;47.86;97247.00;10409818;28;20064;-57
2021/12/24 23:59:14;;;;;;;22.40;13.90;;;;;;;8.47;47.68;97232.34;10410143;28;19962;-57
